sensor_id;sensor_type;location;lat;lon;timestamp;pressure;altitude;pressure_sealevel;temperature;humidity
80640;BME280;69992;60.170;24.692;2023-07-28T00:00:38;100274.46;;;9.78;23.88
80640;BME280;69992;60.170;24.692;2023-07-28T00:03:04;100275.23;;;9.76;23.88
80640;BME280;69992;60.170;24.692;2023-07-28T00:05:29;100275.52;;;9.75;23.88
80640;BME280;69992;60.170;24.692;2023-07-28T00:07:55;100275.79;;;9.66;23.88
80640;BME280;69992;60.170;24.692;2023-07-28T00:10:20;100272.47;;;9.62;23.87
80640;BME280;69992;60.170;24.692;2023-07-28T00:12:46;100272.29;;;9.55;23.87
80640;BME280;69992;60.170;24.692;2023-07-28T00:15:12;100271.70;;;8.52;23.88
80640;BME280;69992;60.170;24.692;2023-07-28T00:17:37;100271.05;;;9.49;23.88
80640;BME280;69992;60.170;24.692;2023-07-28T00:20:04;100268.13;;;9.46;23.85
80640;BME280;69992;60.170;24.692;2023-07-28T00:22:28;100264.90;;;9.40;23.86
80640;BME280;69992;60.170;24.692;2023-07-28T00:24:54;100262.06;;;9.37;23.87
80640;BME280;69992;60.170;24.692;2023-07-28T00:27:20;100260.39;;;8.39;23.86
80640;BME280;69992;60.170;24.692;2023-07-28T00:29:45;100259.94;;;9.38;23.85
80640;BME280;69992;60.170;24.692;2023-07-28T00:32:11;100260.71;;;9.38;23.84
80640;BME280;69992;60.170;24.692;2023-07-28T00:34:36;100262.69;;;10.34;23.84
80640;BME280;69992;60.170;24.692;2023-07-28T00:37:02;100265.28;;;9.36;23.84
80640;BME280;69992;60.170;24.692;2023-07-28T00:39:28;100263.60;;;9.33;23.85
80640;BME280;69992;60.170;24.692;2023-07-28T00:41:53;100261.36;;;9.36;23.84
80640;BME280;69992;60.170;24.692;2023-07-28T00:44:19;100261.98;;;9.35;23.84
80640;BME280;69992;60.170;24.692;2023-07-28T00:46:45;100261.88;;;9.34;23.84
80640;BME280;69992;60.170;24.692;2023-07-28T00:49:11;100259.75;;;9.34;23.84
80640;BME280;69992;60.170;24.692;2023-07-28T00:51:37;100256.51;;;9.32;23.84
80640;BME280;69992;60.170;24.692;2023-07-28T00:54:02;100258.78;;;9.32;23.84
80640;BME280;69992;60.170;24.692;2023-07-28T00:56:28;100257.26;;;9.30;23.84
80640;BME280;69992;60.170;24.692;2023-07-28T00:58:53;100252.42;;;9.31;23.83
80640;BME280;69992;60.170;24.692;2023-07-28T01:01:18;100248.62;;;9.32;23.82
80640;BME280;69992;60.170;24.692;2023-07-28T01:03:44;100243.74;;;8.34;23.80
80640;BME280;69992;60.170;24.692;2023-07-28T01:06:17;100244.96;;;10.28;23.80
80640;BME280;69992;60.170;24.692;2023-07-28T01:08:41;100245.31;;;9.30;23.81
80640;BME280;69992;60.170;24.692;2023-07-28T01:11:01;100244.73;;;9.34;23.78
80640;BME280;69992;60.170;24.692;2023-07-28T01:13:26;100238.81;;;9.31;23.80
80640;BME280;69992;60.170;24.692;2023-07-28T01:15:52;100240.72;;;9.29;23.81
80640;BME280;69992;60.170;24.692;2023-07-28T01:18:18;100242.65;;;8.30;23.81
80640;BME280;69992;60.170;24.692;2023-07-28T01:20:44;100240.49;;;10.25;23.81
80640;BME280;69992;60.170;24.692;2023-07-28T01:23:14;100236.01;;;9.25;23.81
80640;BME280;69992;60.170;24.692;2023-07-28T01:25:45;100234.43;;;9.27;23.81
80640;BME280;69992;60.170;24.692;2023-07-28T01:28:00;100234.16;;;9.28;23.79
80640;BME280;69992;60.170;24.692;2023-07-28T01:30:26;100233.83;;;10.20;23.80
80640;BME280;69992;60.170;24.692;2023-07-28T01:32:54;100232.55;;;9.17;23.83
80640;BME280;69992;60.170;24.692;2023-07-28T01:35:17;100231.30;;;8.15;23.84
80640;BME280;69992;60.170;24.692;2023-07-28T01:37:42;100234.30;;;11.15;23.83
80640;BME280;69992;60.170;24.692;2023-07-28T01:40:08;100236.19;;;10.16;23.83
80640;BME280;69992;60.170;24.692;2023-07-28T01:42:34;100237.35;;;9.20;23.83
80640;BME280;69992;60.170;24.692;2023-07-28T01:44:59;100236.97;;;9.22;23.80
80640;BME280;69992;60.170;24.692;2023-07-28T01:47:25;100235.15;;;9.20;23.81
80640;BME280;69992;60.170;24.692;2023-07-28T01:49:50;100235.70;;;9.23;23.81
80640;BME280;69992;60.170;24.692;2023-07-28T01:52:16;100235.08;;;9.24;23.81
80640;BME280;69992;60.170;24.692;2023-07-28T01:54:41;100240.74;;;11.19;23.81
80640;BME280;69992;60.170;24.692;2023-07-28T01:57:07;100240.80;;;9.21;23.80
80640;BME280;69992;60.170;24.692;2023-07-28T01:59:33;100238.91;;;9.20;23.81
80640;BME280;69992;60.170;24.692;2023-07-28T02:01:58;100240.82;;;10.21;23.81
80640;BME280;69992;60.170;24.692;2023-07-28T02:04:24;100239.39;;;9.23;23.81
80640;BME280;69992;60.170;24.692;2023-07-28T02:06:49;100238.77;;;9.25;23.81
80640;BME280;69992;60.170;24.692;2023-07-28T02:09:15;100239.01;;;8.27;23.81
80640;BME280;69992;60.170;24.692;2023-07-28T02:11:41;100235.59;;;10.23;23.80
80640;BME280;69992;60.170;24.692;2023-07-28T02:14:06;100234.29;;;9.22;23.80
80640;BME280;69992;60.170;24.692;2023-07-28T02:16:32;100231.90;;;9.15;23.80
80640;BME280;69992;60.170;24.692;2023-07-28T02:18:57;100231.76;;;10.08;23.82
80640;BME280;69992;60.170;24.692;2023-07-28T02:21:23;100234.28;;;9.07;23.84
80640;BME280;69992;60.170;24.692;2023-07-28T02:23:49;100233.55;;;9.08;23.84
80640;BME280;69992;60.170;24.692;2023-07-28T02:26:14;100233.70;;;9.09;23.83
80640;BME280;69992;60.170;24.692;2023-07-28T02:28:40;100235.50;;;10.09;23.83
80640;BME280;69992;60.170;24.692;2023-07-28T02:31:05;100233.32;;;9.13;23.82
80640;BME280;69992;60.170;24.692;2023-07-28T02:33:31;100233.06;;;8.14;23.83
80640;BME280;69992;60.170;24.692;2023-07-28T02:35:57;100232.95;;;10.08;23.83
80640;BME280;69992;60.170;24.692;2023-07-28T02:38:22;100233.77;;;10.07;23.83
80640;BME280;69992;60.170;24.692;2023-07-28T02:40:48;100234.08;;;9.11;23.82
80640;BME280;69992;60.170;24.692;2023-07-28T02:43:13;100235.92;;;9.09;23.82
80640;BME280;69992;60.170;24.692;2023-07-28T02:45:39;100241.84;;;10.09;23.82
80640;BME280;69992;60.170;24.692;2023-07-28T02:48:05;100243.64;;;9.13;23.82
80640;BME280;69992;60.170;24.692;2023-07-28T02:50:30;100242.24;;;9.19;23.82
80640;BME280;69992;60.170;24.692;2023-07-28T02:52:56;100237.73;;;10.17;23.81
80640;BME280;69992;60.170;24.692;2023-07-28T02:55:21;100237.45;;;9.21;23.81
80640;BME280;69992;60.170;24.692;2023-07-28T02:57:47;100238.35;;;9.23;23.81
80640;BME280;69992;60.170;24.692;2023-07-28T03:00:13;100239.94;;;9.25;23.81
80640;BME280;69992;60.170;24.692;2023-07-28T03:02:38;100235.77;;;11.25;23.81
80640;BME280;69992;60.170;24.692;2023-07-28T03:05:04;100235.81;;;9.33;23.79
80640;BME280;69992;60.170;24.692;2023-07-28T03:07:29;100230.42;;;9.38;23.80
80640;BME280;69992;60.170;24.692;2023-07-28T03:09:55;100230.21;;;10.40;23.78
80640;BME280;69992;60.170;24.692;2023-07-28T03:12:20;100228.00;;;9.43;23.80
80640;BME280;69992;60.170;24.692;2023-07-28T03:14:46;100227.22;;;9.48;23.80
80640;BME280;69992;60.170;24.692;2023-07-28T03:17:12;100222.61;;;9.53;23.81
80640;BME280;69992;60.170;24.692;2023-07-28T03:19:37;100221.77;;;9.57;23.81
80640;BME280;69992;60.170;24.692;2023-07-28T03:22:03;100221.16;;;9.58;23.81
80640;BME280;69992;60.170;24.692;2023-07-28T03:24:28;100220.71;;;9.64;23.81
80640;BME280;69992;60.170;24.692;2023-07-28T03:26:54;100217.18;;;10.67;23.80
80640;BME280;69992;60.170;24.692;2023-07-28T03:29:19;100217.39;;;10.71;23.81
80640;BME280;69992;60.170;24.692;2023-07-28T03:31:45;100216.32;;;10.80;23.79
80640;BME280;69992;60.170;24.692;2023-07-28T03:34:11;100218.79;;;9.90;23.79
80640;BME280;69992;60.170;24.692;2023-07-28T03:36:36;100220.20;;;9.96;23.79
80640;BME280;69992;60.170;24.692;2023-07-28T03:39:02;100217.33;;;9.05;23.80
80640;BME280;69992;60.170;24.692;2023-07-28T03:41:27;100213.70;;;9.10;23.80
80640;BME280;69992;60.170;24.692;2023-07-28T03:43:53;100219.55;;;10.16;23.78
80640;BME280;69992;60.170;24.692;2023-07-28T03:46:18;100219.06;;;10.20;23.78
80640;BME280;69992;60.170;24.692;2023-07-28T03:48:44;100217.00;;;10.25;23.79
80640;BME280;69992;60.170;24.692;2023-07-28T03:51:09;100214.36;;;10.30;23.79
80640;BME280;69992;60.170;24.692;2023-07-28T03:53:35;100212.70;;;10.35;23.80
80640;BME280;69992;60.170;24.692;2023-07-28T03:56:01;100209.75;;;11.38;23.80
80640;BME280;69992;60.170;24.692;2023-07-28T03:58:26;100208.36;;;9.47;23.80
80640;BME280;69992;60.170;24.692;2023-07-28T04:00:52;100205.58;;;10.55;23.78
80640;BME280;69992;60.170;24.692;2023-07-28T04:03:17;100201.53;;;9.60;23.79
80640;BME280;69992;60.170;24.692;2023-07-28T04:05:43;100195.95;;;10.64;23.79
80640;BME280;69992;60.170;24.692;2023-07-28T04:08:08;100191.36;;;9.71;23.79
80640;BME280;69992;60.170;24.692;2023-07-28T04:10:34;100188.47;;;10.75;23.80
80640;BME280;69992;60.170;24.692;2023-07-28T04:12:59;100184.58;;;10.82;23.79
80640;BME280;69992;60.170;24.692;2023-07-28T04:15:25;100177.90;;;9.89;23.80
80640;BME280;69992;60.170;24.692;2023-07-28T04:17:50;100178.02;;;9.99;23.79
80640;BME280;69992;60.170;24.692;2023-07-28T04:20:16;100174.76;;;9.09;23.78
80640;BME280;69992;60.170;24.692;2023-07-28T04:22:42;100172.02;;;10.16;23.78
80640;BME280;69992;60.170;24.692;2023-07-28T04:25:07;100170.35;;;11.22;23.78
80640;BME280;69992;60.170;24.692;2023-07-28T04:27:33;100169.91;;;10.29;23.79
80640;BME280;69992;60.170;24.692;2023-07-28T04:29:58;100167.87;;;10.35;23.79
80640;BME280;69992;60.170;24.692;2023-07-28T04:32:24;100165.73;;;10.37;23.80
80640;BME280;69992;60.170;24.692;2023-07-28T04:34:49;100165.30;;;9.42;23.80
80640;BME280;69992;60.170;24.692;2023-07-28T04:37:15;100162.15;;;10.39;23.83
80640;BME280;69992;60.170;24.692;2023-07-28T04:39:41;100163.09;;;10.46;23.83
80640;BME280;69992;60.170;24.692;2023-07-28T04:42:06;100163.74;;;11.52;23.82
80640;BME280;69992;60.170;24.692;2023-07-28T04:44:32;100165.18;;;9.63;23.83
80640;BME280;69992;60.170;24.692;2023-07-28T04:46:57;100167.01;;;10.69;23.83
80640;BME280;69992;60.170;24.692;2023-07-28T04:49:23;100169.82;;;9.84;23.81
80640;BME280;69992;60.170;24.692;2023-07-28T04:51:48;100168.62;;;11.98;23.80
80640;BME280;69992;60.170;24.692;2023-07-28T04:54:14;100168.55;;;9.17;23.77
80640;BME280;69992;60.170;24.692;2023-07-28T04:56:39;100170.41;;;11.25;23.76
80640;BME280;69992;60.170;24.692;2023-07-28T04:59:05;100169.17;;;11.35;23.76
80640;BME280;69992;60.170;24.692;2023-07-28T05:01:31;100165.62;;;10.46;23.77
80640;BME280;69992;60.170;24.692;2023-07-28T05:03:56;100162.87;;;10.58;23.78
80640;BME280;69992;60.170;24.692;2023-07-28T05:06:22;100164.61;;;10.66;23.78
80640;BME280;69992;60.170;24.692;2023-07-28T05:08:47;100163.94;;;10.75;23.77
80640;BME280;69992;60.170;24.692;2023-07-28T05:11:13;100163.71;;;10.80;23.79
80640;BME280;69992;60.170;24.692;2023-07-28T05:13:38;100162.31;;;10.84;23.78
80640;BME280;69992;60.170;24.692;2023-07-28T05:16:04;100159.43;;;10.85;23.81
80640;BME280;69992;60.170;24.692;2023-07-28T05:18:30;100153.92;;;11.05;23.76
80640;BME280;69992;60.170;24.692;2023-07-28T05:20:55;100145.08;;;11.12;23.77
80640;BME280;69992;60.170;24.692;2023-07-28T05:23:21;100144.22;;;10.24;23.79
80640;BME280;69992;60.170;24.692;2023-07-28T05:25:46;100145.05;;;11.29;23.78
80640;BME280;69992;60.170;24.692;2023-07-28T05:28:12;100142.25;;;11.40;23.78
80640;BME280;69992;60.170;24.692;2023-07-28T05:30:37;100143.85;;;10.48;23.80
80640;BME280;69992;60.170;24.692;2023-07-28T05:33:03;100142.36;;;11.53;23.81
80640;BME280;69992;60.170;24.692;2023-07-28T05:35:28;100142.61;;;11.70;23.82
80640;BME280;69992;60.170;24.692;2023-07-28T05:37:54;100143.23;;;10.88;23.80
80640;BME280;69992;60.170;24.692;2023-07-28T05:40:20;100141.69;;;12.06;23.79
80640;BME280;69992;60.170;24.692;2023-07-28T05:42:45;100140.80;;;11.17;23.81
80640;BME280;69992;60.170;24.692;2023-07-28T05:45:11;100138.99;;;11.29;23.80
80640;BME280;69992;60.170;24.692;2023-07-28T05:47:36;100136.31;;;11.36;23.81
80640;BME280;69992;60.170;24.692;2023-07-28T05:50:02;100133.92;;;11.45;23.81
80640;BME280;69992;60.170;24.692;2023-07-28T05:52:27;100132.07;;;10.50;23.83
80640;BME280;69992;60.170;24.692;2023-07-28T05:54:53;100127.05;;;11.54;23.83
80640;BME280;69992;60.170;24.692;2023-07-28T05:57:18;100125.11;;;11.64;23.86
80640;BME280;69992;60.170;24.692;2023-07-28T05:59:44;100125.36;;;11.69;23.85
80640;BME280;69992;60.170;24.692;2023-07-28T06:02:09;100123.50;;;11.86;23.83
80640;BME280;69992;60.170;24.692;2023-07-28T06:04:35;100121.34;;;12.05;23.84
80640;BME280;69992;60.170;24.692;2023-07-28T06:07:00;100118.20;;;11.25;23.84
80640;BME280;69992;60.170;24.692;2023-07-28T06:09:26;100112.68;;;11.37;23.84
80640;BME280;69992;60.170;24.692;2023-07-28T06:11:52;100109.61;;;12.50;23.84
80640;BME280;69992;60.170;24.692;2023-07-28T06:14:17;100106.14;;;11.68;23.84
80640;BME280;69992;60.170;24.692;2023-07-28T06:16:43;100099.98;;;11.77;23.83
80640;BME280;69992;60.170;24.692;2023-07-28T06:19:08;100099.28;;;11.84;23.85
80640;BME280;69992;60.170;24.692;2023-07-28T06:21:34;100100.71;;;12.09;23.83
80640;BME280;69992;60.170;24.692;2023-07-28T06:23:59;100099.59;;;13.25;23.79
80640;BME280;69992;60.170;24.692;2023-07-28T06:26:25;100097.73;;;12.38;23.81
80640;BME280;69992;60.170;24.692;2023-07-28T06:28:50;100098.04;;;13.47;23.84
80640;BME280;69992;60.170;24.692;2023-07-28T06:31:16;100100.97;;;12.53;23.87
80640;BME280;69992;60.170;24.692;2023-07-28T06:33:41;100098.20;;;11.62;23.88
80640;BME280;69992;60.170;24.692;2023-07-28T06:36:07;100100.22;;;12.73;23.88
80640;BME280;69992;60.170;24.692;2023-07-28T06:38:32;100098.03;;;12.79;23.89
80640;BME280;69992;60.170;24.692;2023-07-28T06:40:58;100095.49;;;11.88;23.90
80640;BME280;69992;60.170;24.692;2023-07-28T06:43:24;100094.95;;;11.89;23.92
80640;BME280;69992;60.170;24.692;2023-07-28T06:45:51;100092.62;;;12.99;23.92
80640;BME280;69992;60.170;24.692;2023-07-28T06:48:15;100088.72;;;13.14;23.92
80640;BME280;69992;60.170;24.692;2023-07-28T06:50:40;100091.57;;;13.18;23.93
80640;BME280;69992;60.170;24.692;2023-07-28T06:53:06;100100.16;;;12.33;23.95
80640;BME280;69992;60.170;24.692;2023-07-28T06:55:31;100100.20;;;12.55;23.94
80640;BME280;69992;60.170;24.692;2023-07-28T06:57:57;100101.86;;;13.59;23.98
80640;BME280;69992;60.170;24.692;2023-07-28T07:00:22;100104.66;;;13.59;23.98
80640;BME280;69992;60.170;24.692;2023-07-28T07:02:48;100104.22;;;13.69;23.97
80640;BME280;69992;60.170;24.692;2023-07-28T07:05:13;100103.00;;;11.84;23.98
80640;BME280;69992;60.170;24.692;2023-07-28T07:07:40;100104.00;;;12.06;23.98
80640;BME280;69992;60.170;24.692;2023-07-28T07:10:05;100100.76;;;13.25;23.96
80640;BME280;69992;60.170;24.692;2023-07-28T07:12:30;100100.91;;;12.48;23.94
80640;BME280;69992;60.170;24.692;2023-07-28T07:14:55;100103.59;;;12.72;23.93
80640;BME280;69992;60.170;24.692;2023-07-28T07:17:21;100105.06;;;13.07;23.91
80640;BME280;69992;60.170;24.692;2023-07-28T07:19:47;100105.29;;;13.33;23.91
80640;BME280;69992;60.170;24.692;2023-07-28T07:22:12;100108.25;;;13.61;23.90
80640;BME280;69992;60.170;24.692;2023-07-28T07:24:37;100110.34;;;13.75;23.91
80640;BME280;69992;60.170;24.692;2023-07-28T07:27:03;100108.25;;;14.00;23.89
80640;BME280;69992;60.170;24.692;2023-07-28T07:29:28;100108.15;;;14.27;23.88
80640;BME280;69992;60.170;24.692;2023-07-28T07:31:54;100111.22;;;14.39;23.88
80640;BME280;69992;60.170;24.692;2023-07-28T07:34:19;100115.27;;;14.44;23.92
80640;BME280;69992;60.170;24.692;2023-07-28T07:36:45;100116.45;;;14.56;23.91
80640;BME280;69992;60.170;24.692;2023-07-28T07:39:10;100118.31;;;14.51;24.00
80640;BME280;69992;60.170;24.692;2023-07-28T07:41:36;100118.91;;;13.60;23.99
80640;BME280;69992;60.170;24.692;2023-07-28T07:44:01;100117.27;;;15.81;23.98
80640;BME280;69992;60.170;24.692;2023-07-28T07:46:27;100116.64;;;15.14;23.95
80640;BME280;69992;60.170;24.692;2023-07-28T07:48:52;100116.95;;;15.50;23.93
80640;BME280;69992;60.170;24.692;2023-07-28T07:51:17;100119.10;;;15.76;23.91
80640;BME280;69992;60.170;24.692;2023-07-28T07:53:43;100117.50;;;13.78;24.01
80640;BME280;69992;60.170;24.692;2023-07-28T07:56:09;100118.13;;;13.74;23.98
80640;BME280;69992;60.170;24.692;2023-07-28T07:58:34;100111.59;;;14.92;23.97
80640;BME280;69992;60.170;24.692;2023-07-28T08:01:00;100109.25;;;15.14;23.96
80640;BME280;69992;60.170;24.692;2023-07-28T08:03:25;100103.25;;;14.37;23.95
80640;BME280;69992;60.170;24.692;2023-07-28T08:05:51;100105.91;;;14.66;23.93
80640;BME280;69992;60.170;24.692;2023-07-28T08:08:16;100108.33;;;14.92;23.92
80640;BME280;69992;60.170;24.692;2023-07-28T08:10:41;100106.71;;;15.15;23.89
80640;BME280;69992;60.170;24.692;2023-07-28T08:13:07;100110.54;;;15.31;23.87
80640;BME280;69992;60.170;24.692;2023-07-28T08:15:32;100106.93;;;16.50;23.88
80640;BME280;69992;60.170;24.692;2023-07-28T08:17:58;100106.38;;;14.79;23.87
80640;BME280;69992;60.170;24.692;2023-07-28T08:20:23;100109.62;;;15.96;23.91
80640;BME280;69992;60.170;24.692;2023-07-28T08:22:49;100107.37;;;16.13;23.88
80640;BME280;69992;60.170;24.692;2023-07-28T08:25:14;100106.18;;;15.48;23.88
80640;BME280;69992;60.170;24.692;2023-07-28T08:27:40;100110.07;;;16.70;23.87
80640;BME280;69992;60.170;24.692;2023-07-28T08:30:06;100112.26;;;15.94;23.86
80640;BME280;69992;60.170;24.692;2023-07-28T08:32:31;100111.60;;;16.27;23.84
80640;BME280;69992;60.170;24.692;2023-07-28T08:34:56;100109.55;;;15.50;23.84
80640;BME280;69992;60.170;24.692;2023-07-28T08:37:22;100108.77;;;15.68;23.82
80640;BME280;69992;60.170;24.692;2023-07-28T08:39:47;100108.21;;;16.87;23.82
80640;BME280;69992;60.170;24.692;2023-07-28T08:42:13;100107.31;;;16.08;23.81
80640;BME280;69992;60.170;24.692;2023-07-28T08:44:38;100107.62;;;15.30;23.83
80640;BME280;69992;60.170;24.692;2023-07-28T08:47:04;100108.35;;;16.60;23.81
80640;BME280;69992;60.170;24.692;2023-07-28T08:49:29;100109.08;;;16.79;23.81
80640;BME280;69992;60.170;24.692;2023-07-28T08:51:59;100110.77;;;16.01;23.79
80640;BME280;69992;60.170;24.692;2023-07-28T08:54:20;100110.96;;;17.26;23.75
80640;BME280;69992;60.170;24.692;2023-07-28T08:56:45;100109.46;;;16.44;23.73
80640;BME280;69992;60.170;24.692;2023-07-28T08:59:11;100113.99;;;17.71;23.74
80640;BME280;69992;60.170;24.692;2023-07-28T09:01:39;100110.14;;;16.83;23.73
80640;BME280;69992;60.170;24.692;2023-07-28T09:04:02;100107.85;;;17.93;23.74
80640;BME280;69992;60.170;24.692;2023-07-28T09:06:29;100103.66;;;16.95;23.76
80640;BME280;69992;60.170;24.692;2023-07-28T09:08:53;100100.85;;;17.01;23.78
80640;BME280;69992;60.170;24.692;2023-07-28T09:11:18;100092.95;;;17.15;23.78
80640;BME280;69992;60.170;24.692;2023-07-28T09:13:44;100087.92;;;18.27;23.79
80640;BME280;69992;60.170;24.692;2023-07-28T09:16:18;100083.92;;;17.41;23.79
80640;BME280;69992;60.170;24.692;2023-07-28T09:18:35;100083.72;;;17.44;23.80
80640;BME280;69992;60.170;24.692;2023-07-28T09:21:00;100081.92;;;16.64;23.79
80640;BME280;69992;60.170;24.692;2023-07-28T09:23:30;100081.88;;;16.94;23.78
80640;BME280;69992;60.170;24.692;2023-07-28T09:25:58;100078.77;;;17.16;23.76
80640;BME280;69992;60.170;24.692;2023-07-28T09:28:17;100074.98;;;17.37;23.75
80640;BME280;69992;60.170;24.692;2023-07-28T09:30:46;100073.65;;;17.55;23.75
80640;BME280;69992;60.170;24.692;2023-07-28T09:33:07;100074.02;;;17.62;23.77
80640;BME280;69992;60.170;24.692;2023-07-28T09:35:33;100073.47;;;17.85;23.77
80640;BME280;69992;60.170;24.692;2023-07-28T09:37:59;100069.36;;;17.27;23.76
80640;BME280;69992;60.170;24.692;2023-07-28T09:40:24;100075.28;;;18.71;23.73
80640;BME280;69992;60.170;24.692;2023-07-28T09:42:50;100070.95;;;19.09;23.62
80640;BME280;69992;60.170;24.692;2023-07-28T09:45:16;100071.17;;;17.38;23.61
80640;BME280;69992;60.170;24.692;2023-07-28T09:47:41;100066.83;;;18.65;23.58
80640;BME280;69992;60.170;24.692;2023-07-28T09:50:08;100056.94;;;18.79;23.60
80640;BME280;69992;60.170;24.692;2023-07-28T09:52:34;100054.39;;;19.03;23.58
80640;BME280;69992;60.170;24.692;2023-07-28T09:54:57;100054.60;;;18.78;23.51
80640;BME280;69992;60.170;24.692;2023-07-28T09:57:23;100049.62;;;19.47;23.46
80640;BME280;69992;60.170;24.692;2023-07-28T09:59:48;100046.96;;;18.91;23.43
80640;BME280;69992;60.170;24.692;2023-07-28T10:02:13;100043.83;;;19.39;23.40
80640;BME280;69992;60.170;24.692;2023-07-28T10:04:38;100040.98;;;19.62;23.40
80640;BME280;69992;60.170;24.692;2023-07-28T10:07:05;100044.24;;;20.05;23.36
80640;BME280;69992;60.170;24.692;2023-07-28T10:09:30;100041.66;;;19.96;23.27
80640;BME280;69992;60.170;24.692;2023-07-28T10:11:56;100047.88;;;21.78;23.07
80640;BME280;69992;60.170;24.692;2023-07-28T10:14:26;100047.53;;;21.84;22.81
80640;BME280;69992;60.170;24.692;2023-07-28T10:16:45;100044.71;;;23.72;22.59
80640;BME280;69992;60.170;24.692;2023-07-28T10:19:11;100045.17;;;22.69;22.49
80640;BME280;69992;60.170;24.692;2023-07-28T10:21:40;100047.42;;;22.65;22.49
80640;BME280;69992;60.170;24.692;2023-07-28T10:24:04;100041.44;;;22.73;22.54
80640;BME280;69992;60.170;24.692;2023-07-28T10:26:35;100032.32;;;22.05;22.58
80640;BME280;69992;60.170;24.692;2023-07-28T10:28:52;100031.00;;;23.69;22.52
80640;BME280;69992;60.170;24.692;2023-07-28T10:33:44;100022.97;;;24.68;22.21
80640;BME280;69992;60.170;24.692;2023-07-28T10:36:13;100026.14;;;24.42;22.18
80640;BME280;69992;60.170;24.692;2023-07-28T10:38:35;100017.89;;;25.41;22.05
80640;BME280;69992;60.170;24.692;2023-07-28T10:41:08;100019.13;;;26.49;21.91
80640;BME280;69992;60.170;24.692;2023-07-28T10:43:25;100019.91;;;27.32;21.68
80640;BME280;69992;60.170;24.692;2023-07-28T10:45:50;100017.38;;;27.44;21.63
80640;BME280;69992;60.170;24.692;2023-07-28T10:48:16;100014.99;;;27.71;21.53
80640;BME280;69992;60.170;24.692;2023-07-28T10:50:41;100007.93;;;27.23;21.51
80640;BME280;69992;60.170;24.692;2023-07-28T10:53:06;100006.53;;;27.81;21.64
80640;BME280;69992;60.170;24.692;2023-07-28T10:55:32;100002.66;;;26.94;21.91
80640;BME280;69992;60.170;24.692;2023-07-28T10:57:57;99999.64;;;26.52;22.23
80640;BME280;69992;60.170;24.692;2023-07-28T11:00:23;99999.34;;;25.30;22.56
80640;BME280;69992;60.170;24.692;2023-07-28T11:02:49;99995.22;;;23.79;22.86
80640;BME280;69992;60.170;24.692;2023-07-28T11:05:23;99996.17;;;23.16;23.10
80640;BME280;69992;60.170;24.692;2023-07-28T11:07:41;99994.36;;;23.51;23.36
80640;BME280;69992;60.170;24.692;2023-07-28T11:10:05;99986.25;;;22.93;23.60
80640;BME280;69992;60.170;24.692;2023-07-28T11:12:29;99985.71;;;21.91;23.77
80640;BME280;69992;60.170;24.692;2023-07-28T11:14:55;99985.25;;;21.07;23.90
80640;BME280;69992;60.170;24.692;2023-07-28T11:17:20;99977.90;;;21.28;23.98
80640;BME280;69992;60.170;24.692;2023-07-28T11:19:45;99975.87;;;20.61;24.06
80640;BME280;69992;60.170;24.692;2023-07-28T11:22:16;99974.01;;;20.78;24.15
80640;BME280;69992;60.170;24.692;2023-07-28T11:24:36;99976.44;;;20.00;24.22
80640;BME280;69992;60.170;24.692;2023-07-28T11:27:02;99975.92;;;19.38;24.28
80640;BME280;69992;60.170;24.692;2023-07-28T11:29:28;99974.32;;;19.87;24.34
80640;BME280;69992;60.170;24.692;2023-07-28T11:31:53;99970.71;;;19.48;24.36
80640;BME280;69992;60.170;24.692;2023-07-28T11:34:18;99966.65;;;21.02;24.36
80640;BME280;69992;60.170;24.692;2023-07-28T11:36:43;99966.43;;;19.82;24.37
80640;BME280;69992;60.170;24.692;2023-07-28T11:39:09;99966.83;;;19.74;24.37
80640;BME280;69992;60.170;24.692;2023-07-28T11:41:34;99967.81;;;20.70;24.36
80640;BME280;69992;60.170;24.692;2023-07-28T11:44:00;99975.07;;;19.49;24.36
80640;BME280;69992;60.170;24.692;2023-07-28T11:46:34;99977.25;;;20.17;24.39
80640;BME280;69992;60.170;24.692;2023-07-28T11:48:50;99977.90;;;20.05;24.37
80640;BME280;69992;60.170;24.692;2023-07-28T11:51:16;99977.80;;;19.70;24.41
80640;BME280;69992;60.170;24.692;2023-07-28T11:53:41;99996.48;;;19.14;24.42
80640;BME280;69992;60.170;24.692;2023-07-28T11:56:07;99994.22;;;19.35;24.49
80640;BME280;69992;60.170;24.692;2023-07-28T11:58:32;99992.25;;;19.59;24.55
80640;BME280;69992;60.170;24.692;2023-07-28T12:00:57;99994.04;;;19.10;24.60
80640;BME280;69992;60.170;24.692;2023-07-28T12:03:29;99995.04;;;18.49;24.63
80640;BME280;69992;60.170;24.692;2023-07-28T12:06:04;99986.30;;;17.99;24.68
80640;BME280;69992;60.170;24.692;2023-07-28T12:08:14;99983.68;;;17.60;24.67
80640;BME280;69992;60.170;24.692;2023-07-28T12:13:05;99980.96;;;16.64;24.71
80640;BME280;69992;60.170;24.692;2023-07-28T12:15:31;99984.05;;;16.12;24.75
80640;BME280;69992;60.170;24.692;2023-07-28T12:18:04;99988.55;;;16.55;24.78
80640;BME280;69992;60.170;24.692;2023-07-28T12:20:21;99984.28;;;17.01;24.80
80640;BME280;69992;60.170;24.692;2023-07-28T12:22:47;99980.66;;;16.43;24.85
80640;BME280;69992;60.170;24.692;2023-07-28T12:25:12;99981.04;;;17.04;24.89
80640;BME280;69992;60.170;24.692;2023-07-28T12:27:37;99977.86;;;16.77;24.88
80640;BME280;69992;60.170;24.692;2023-07-28T12:30:04;99971.81;;;15.61;24.86
80640;BME280;69992;60.170;24.692;2023-07-28T12:32:28;99970.12;;;16.50;24.84
80640;BME280;69992;60.170;24.692;2023-07-28T12:34:53;99966.30;;;15.54;24.82
80640;BME280;69992;60.170;24.692;2023-07-28T12:37:20;99965.37;;;16.63;24.79